createdAt,value
2022-08-12T00:00:31.718Z,1016.42159682
2022-08-12T00:02:04.400Z,1016.523188184
2022-08-12T00:02:31.746Z,1016.523188184
2022-08-12T00:03:31.847Z,1016.42159682
2022-08-12T00:04:31.760Z,1016.6247795480001
2022-08-12T00:05:31.699Z,1016.3200054560001
2022-08-12T00:06:31.691Z,1016.6247795480001
2022-08-12T00:07:31.679Z,1016.42159682
2022-08-12T00:08:36.775Z,1016.523188184
2022-08-12T00:09:31.692Z,1016.523188184
2022-08-12T00:10:31.695Z,1016.42159682
2022-08-12T00:11:31.695Z,1016.523188184
2022-08-12T00:12:31.690Z,1016.523188184
2022-08-12T00:13:31.963Z,1016.523188184
2022-08-12T00:14:31.703Z,1016.523188184
2022-08-12T00:15:31.686Z,1016.42159682
2022-08-12T00:16:31.707Z,1016.6247795480001
2022-08-12T00:17:31.735Z,1016.42159682
2022-08-12T00:18:31.693Z,1016.42159682
2022-08-12T00:19:31.665Z,1016.42159682
2022-08-12T00:20:31.750Z,1016.523188184
2022-08-12T00:21:31.691Z,1016.42159682
2022-08-12T00:22:31.699Z,1016.6247795480001
2022-08-12T00:23:31.688Z,1016.523188184
2022-08-12T00:24:31.802Z,1016.3200054560001
2022-08-12T00:26:20.072Z,1016.42159682
2022-08-12T00:26:31.753Z,1016.42159682
2022-08-12T00:27:43.508Z,1016.42159682
2022-08-12T00:28:31.739Z,1016.42159682
2022-08-12T00:29:31.698Z,1016.42159682
2022-08-12T00:30:31.716Z,1016.827962276
2022-08-12T00:31:31.677Z,1016.523188184
2022-08-12T00:32:54.877Z,1016.523188184
2022-08-12T00:33:38.647Z,1016.42159682
2022-08-12T00:34:31.760Z,1016.523188184
2022-08-12T00:35:36.774Z,1016.523188184
2022-08-12T00:36:34.618Z,1016.6247795480001
2022-08-12T00:37:31.681Z,1016.3200054560001
2022-08-12T00:38:31.713Z,1016.523188184
2022-08-12T00:39:31.742Z,1016.218414092
2022-08-12T00:40:31.705Z,1016.3200054560001
2022-08-12T00:41:31.720Z,1016.523188184
2022-08-12T00:42:31.721Z,1016.523188184
2022-08-12T00:43:31.673Z,1016.6247795480001
2022-08-12T00:44:31.743Z,1016.726370912
2022-08-12T00:45:31.708Z,1016.523188184
2022-08-12T00:46:31.695Z,1016.3200054560001
2022-08-12T00:47:31.699Z,1016.523188184
2022-08-12T00:48:31.723Z,1016.6247795480001
2022-08-12T00:49:31.736Z,1016.523188184
2022-08-12T00:50:31.701Z,1016.6247795480001
2022-08-12T00:51:31.704Z,1016.523188184
2022-08-12T00:52:31.743Z,1016.726370912
2022-08-12T00:53:31.711Z,1016.523188184
2022-08-12T00:54:32.171Z,1016.523188184
2022-08-12T00:55:31.690Z,1016.523188184
2022-08-12T00:56:31.723Z,1016.42159682
2022-08-12T00:57:31.698Z,1016.42159682
2022-08-12T00:58:31.706Z,1016.42159682
2022-08-12T00:59:31.706Z,1016.6247795480001
2022-08-12T01:00:31.733Z,1016.523188184
2022-08-12T01:02:01.049Z,1016.6247795480001
2022-08-12T01:02:31.914Z,1016.726370912
2022-08-12T01:03:31.867Z,1016.523188184
2022-08-12T01:04:31.696Z,1016.6247795480001
2022-08-12T01:05:31.706Z,1016.523188184
2022-08-12T01:06:31.709Z,1016.42159682
2022-08-12T01:07:31.747Z,1016.6247795480001
2022-08-12T01:08:31.736Z,1016.726370912
2022-08-12T01:09:31.726Z,1016.523188184
2022-08-12T01:10:33.012Z,1016.6247795480001
2022-08-12T01:11:31.756Z,1016.726370912
2022-08-12T01:12:31.705Z,1016.6247795480001
2022-08-12T01:13:31.704Z,1016.726370912
2022-08-12T01:14:31.698Z,1016.827962276
2022-08-12T01:15:31.712Z,1016.523188184
2022-08-12T01:16:31.725Z,1016.523188184
2022-08-12T01:17:31.764Z,1016.827962276
2022-08-12T01:18:31.783Z,1016.6247795480001
2022-08-12T01:19:31.724Z,1016.523188184
2022-08-12T01:20:31.717Z,1016.726370912
2022-08-12T01:21:31.730Z,1016.523188184
2022-08-12T01:22:31.705Z,1016.6247795480001
2022-08-12T01:23:31.734Z,1016.523188184
2022-08-12T01:24:32.090Z,1016.6247795480001
2022-08-12T01:25:31.689Z,1016.42159682
2022-08-12T01:26:31.712Z,1016.523188184
2022-08-12T01:27:31.715Z,1016.726370912
2022-08-12T01:28:31.729Z,1016.827962276
2022-08-12T01:29:32.873Z,1016.6247795480001
2022-08-12T01:30:31.690Z,1016.827962276
2022-08-12T01:31:31.703Z,1016.6247795480001
2022-08-12T01:32:31.738Z,1016.6247795480001
2022-08-12T01:33:31.741Z,1016.6247795480001
2022-08-12T01:34:36.912Z,1016.523188184
2022-08-12T01:35:31.715Z,1016.726370912
2022-08-12T01:36:31.698Z,1016.726370912
2022-08-12T01:37:31.694Z,1016.6247795480001
2022-08-12T01:38:31.690Z,1016.726370912
2022-08-12T01:39:31.851Z,1016.726370912
2022-08-12T01:40:36.099Z,1016.6247795480001
2022-08-12T01:41:31.909Z,1016.726370912
2022-08-12T01:42:31.831Z,1016.6247795480001
2022-08-12T01:43:31.801Z,1016.6247795480001
2022-08-12T01:44:31.944Z,1016.6247795480001
2022-08-12T01:45:43.190Z,1016.523188184
2022-08-12T01:46:31.835Z,1016.6247795480001
2022-08-12T01:47:31.853Z,1016.726370912
2022-08-12T01:48:31.730Z,1016.827962276
2022-08-12T01:49:31.715Z,1016.6247795480001
2022-08-12T01:50:31.690Z,1016.726370912
2022-08-12T01:52:15.689Z,1016.9295536400001
2022-08-12T01:52:31.739Z,1016.523188184
2022-08-12T01:53:31.697Z,1016.6247795480001
2022-08-12T01:54:31.831Z,1016.726370912
2022-08-12T01:55:31.725Z,1016.523188184
2022-08-12T01:56:31.682Z,1016.726370912
2022-08-12T01:57:57.152Z,1016.726370912
2022-08-12T01:58:32.076Z,1016.726370912
2022-08-12T01:59:31.733Z,1016.6247795480001
2022-08-12T02:00:35.757Z,1016.726370912
2022-08-12T02:01:31.777Z,1016.6247795480001
2022-08-12T02:02:31.816Z,1016.726370912
2022-08-12T02:03:31.702Z,1016.6247795480001
2022-08-12T02:04:31.761Z,1016.6247795480001
2022-08-12T02:05:33.284Z,1016.726370912
2022-08-12T02:06:31.725Z,1016.827962276
2022-08-12T02:07:31.732Z,1016.42159682
2022-08-12T02:08:31.697Z,1016.827962276
2022-08-12T02:09:31.706Z,1016.726370912
2022-08-12T02:10:50.213Z,1016.726370912
2022-08-12T02:11:31.740Z,1016.6247795480001
2022-08-12T02:12:31.708Z,1016.523188184
2022-08-12T02:13:42.094Z,1016.6247795480001
2022-08-12T02:14:31.754Z,1016.523188184
2022-08-12T02:15:31.692Z,1016.6247795480001
2022-08-12T02:16:31.701Z,1016.726370912
2022-08-12T02:17:55.093Z,1016.827962276
2022-08-12T02:18:31.761Z,1016.523188184
2022-08-12T02:19:31.686Z,1016.827962276
2022-08-12T02:20:43.875Z,1016.827962276
2022-08-12T02:21:31.828Z,1016.9295536400001
2022-08-12T02:22:31.700Z,1016.726370912
2022-08-12T02:23:31.677Z,1016.726370912
2022-08-12T02:24:31.719Z,1016.726370912
2022-08-12T02:25:31.694Z,1016.6247795480001
2022-08-12T02:26:31.686Z,1016.9295536400001
2022-08-12T02:27:31.707Z,1016.6247795480001
2022-08-12T02:28:31.692Z,1016.827962276
2022-08-12T02:29:31.708Z,1016.827962276
2022-08-12T02:30:33.221Z,1016.6247795480001
2022-08-12T02:31:31.807Z,1016.827962276
2022-08-12T02:32:31.695Z,1016.726370912
2022-08-12T02:33:31.688Z,1016.9295536400001
2022-08-12T02:34:31.715Z,1016.6247795480001
2022-08-12T02:35:31.657Z,1016.827962276
2022-08-12T02:36:31.851Z,1016.726370912
2022-08-12T02:37:31.708Z,1016.827962276
2022-08-12T02:38:31.772Z,1016.726370912
2022-08-12T02:39:31.807Z,1017.031145004
2022-08-12T02:40:31.689Z,1016.6247795480001
2022-08-12T02:41:31.692Z,1016.6247795480001
2022-08-12T02:42:31.784Z,1016.827962276
2022-08-12T02:43:31.678Z,1016.726370912
2022-08-12T02:44:31.714Z,1016.827962276
2022-08-12T02:45:31.689Z,1016.726370912
2022-08-12T02:46:31.707Z,1016.6247795480001
2022-08-12T02:47:58.585Z,1016.726370912
2022-08-12T02:48:31.771Z,1016.6247795480001
2022-08-12T02:49:31.712Z,1016.827962276
2022-08-12T02:50:31.680Z,1016.6247795480001
2022-08-12T02:51:31.733Z,1016.827962276
2022-08-12T02:52:31.692Z,1016.726370912
2022-08-12T02:53:31.678Z,1016.6247795480001
2022-08-12T02:54:31.716Z,1016.523188184
2022-08-12T02:55:34.949Z,1016.6247795480001
2022-08-12T02:56:31.694Z,1016.523188184
2022-08-12T02:57:31.716Z,1016.827962276
2022-08-12T02:58:33.426Z,1016.726370912
2022-08-12T02:59:31.687Z,1016.6247795480001
2022-08-12T03:00:31.761Z,1016.42159682
2022-08-12T03:01:31.851Z,1016.726370912
2022-08-12T03:02:31.774Z,1016.523188184
2022-08-12T03:03:31.678Z,1016.827962276
2022-08-12T03:04:31.779Z,1016.6247795480001
2022-08-12T03:05:31.678Z,1016.6247795480001
2022-08-12T03:06:31.702Z,1016.726370912
2022-08-12T03:07:56.565Z,1016.726370912
2022-08-12T03:08:33.106Z,1016.6247795480001
2022-08-12T03:09:34.113Z,1016.523188184
2022-08-12T03:10:37.016Z,1016.827962276
2022-08-12T03:11:31.853Z,1016.6247795480001
2022-08-12T03:12:34.174Z,1016.726370912
2022-08-12T03:13:31.880Z,1016.726370912
2022-08-12T03:14:32.070Z,1016.827962276
2022-08-12T03:15:31.862Z,1016.523188184
2022-08-12T03:16:33.478Z,1016.42159682
2022-08-12T03:17:31.855Z,1016.726370912
2022-08-12T03:18:31.891Z,1016.6247795480001
2022-08-12T03:19:31.680Z,1016.9295536400001
2022-08-12T03:20:31.758Z,1016.726370912
2022-08-12T03:21:52.799Z,1016.6247795480001
2022-08-12T03:22:31.875Z,1016.42159682
2022-08-12T03:23:31.748Z,1016.726370912
2022-08-12T03:24:31.765Z,1016.6247795480001
2022-08-12T03:25:31.720Z,1016.6247795480001
2022-08-12T03:26:31.831Z,1016.6247795480001
2022-08-12T03:27:31.794Z,1016.6247795480001
2022-08-12T03:28:31.841Z,1016.42159682
2022-08-12T03:29:31.701Z,1016.6247795480001
2022-08-12T03:30:31.701Z,1016.6247795480001
2022-08-12T03:31:31.644Z,1016.523188184
2022-08-12T03:32:35.819Z,1016.726370912
2022-08-12T03:33:31.689Z,1016.726370912
2022-08-12T03:34:31.689Z,1016.6247795480001
2022-08-12T03:35:41.500Z,1016.6247795480001
2022-08-12T03:36:31.713Z,1016.523188184
2022-08-12T03:37:31.733Z,1016.6247795480001
2022-08-12T03:38:31.985Z,1016.726370912
2022-08-12T03:39:36.394Z,1016.726370912
2022-08-12T03:40:31.742Z,1016.42159682
2022-08-12T03:41:31.785Z,1016.6247795480001
2022-08-12T03:42:31.878Z,1016.726370912
2022-08-12T03:43:31.698Z,1016.726370912
2022-08-12T03:44:31.690Z,1016.523188184
2022-08-12T03:45:31.666Z,1016.6247795480001
2022-08-12T03:46:31.697Z,1016.523188184
2022-08-12T03:47:31.673Z,1016.523188184
2022-08-12T03:48:31.676Z,1016.726370912
2022-08-12T03:49:31.690Z,1016.523188184
2022-08-12T03:50:31.683Z,1016.726370912
2022-08-12T03:51:31.655Z,1016.726370912
2022-08-12T03:52:31.761Z,1016.827962276
2022-08-12T03:53:31.721Z,1016.726370912
2022-08-12T03:54:31.718Z,1016.827962276
2022-08-12T03:55:31.699Z,1016.726370912
2022-08-12T03:56:31.766Z,1016.827962276
2022-08-12T03:57:31.698Z,1016.523188184
2022-08-12T03:58:31.709Z,1016.6247795480001
2022-08-12T03:59:31.702Z,1016.726370912
2022-08-12T04:00:31.725Z,1016.827962276
2022-08-12T04:01:31.861Z,1016.523188184
2022-08-12T04:02:31.716Z,1016.523188184
2022-08-12T04:03:31.737Z,1016.726370912
2022-08-12T04:04:31.708Z,1016.6247795480001
2022-08-12T04:05:54.687Z,1016.726370912
2022-08-12T04:06:35.229Z,1016.6247795480001
2022-08-12T04:07:31.727Z,1016.523188184
2022-08-12T04:08:31.687Z,1016.726370912
2022-08-12T04:09:31.688Z,1016.827962276
2022-08-12T04:10:31.670Z,1016.6247795480001
2022-08-12T04:11:32.284Z,1016.726370912
2022-08-12T04:12:32.748Z,1016.726370912
2022-08-12T04:13:31.714Z,1016.726370912
2022-08-12T04:14:31.804Z,1016.827962276
2022-08-12T04:15:31.841Z,1016.726370912
2022-08-12T04:16:31.819Z,1016.726370912
2022-08-12T04:17:31.705Z,1016.726370912
2022-08-12T04:18:31.708Z,1016.726370912
2022-08-12T04:19:31.715Z,1016.6247795480001
2022-08-12T04:20:31.698Z,1016.827962276
2022-08-12T04:21:31.760Z,1016.726370912
2022-08-12T04:22:31.795Z,1016.726370912
2022-08-12T04:23:31.687Z,1016.827962276
2022-08-12T04:24:31.734Z,1016.726370912
2022-08-12T04:25:31.707Z,1016.6247795480001
2022-08-12T04:26:31.691Z,1016.827962276
2022-08-12T04:27:32.409Z,1017.031145004
2022-08-12T04:28:31.683Z,1016.827962276
2022-08-12T04:30:17.221Z,1016.9295536400001
2022-08-12T04:30:33.579Z,1016.726370912
2022-08-12T04:31:31.695Z,1016.827962276
2022-08-12T04:32:31.869Z,1016.827962276
2022-08-12T04:33:31.736Z,1016.726370912
2022-08-12T04:34:31.710Z,1016.827962276
2022-08-12T04:35:31.687Z,1017.031145004
2022-08-12T04:36:31.859Z,1016.9295536400001
2022-08-12T04:37:59.266Z,1016.827962276
2022-08-12T04:38:31.735Z,1016.9295536400001
2022-08-12T04:39:31.812Z,1016.827962276
2022-08-12T04:40:31.725Z,1016.726370912
2022-08-12T04:41:31.720Z,1016.9295536400001
2022-08-12T04:42:31.835Z,1017.132736368
2022-08-12T04:43:55.288Z,1016.827962276
2022-08-12T04:44:31.806Z,1016.9295536400001
2022-08-12T04:45:31.808Z,1016.827962276
2022-08-12T04:46:34.463Z,1016.827962276
2022-08-12T04:47:31.702Z,1016.827962276
2022-08-12T04:48:31.678Z,1017.031145004
2022-08-12T04:49:31.713Z,1016.827962276
2022-08-12T04:50:35.950Z,1016.9295536400001
2022-08-12T04:51:31.777Z,1016.827962276
2022-08-12T04:52:34.833Z,1016.827962276
2022-08-12T04:53:31.678Z,1016.827962276
2022-08-12T04:54:31.992Z,1016.9295536400001
2022-08-12T04:55:31.696Z,1016.9295536400001
2022-08-12T04:56:35.216Z,1016.827962276
2022-08-12T04:57:31.689Z,1016.827962276
2022-08-12T04:58:31.688Z,1016.9295536400001
2022-08-12T04:59:31.732Z,1017.2343277320001
2022-08-12T05:00:31.711Z,1016.827962276
2022-08-12T05:01:31.710Z,1017.031145004
2022-08-12T05:02:31.726Z,1016.726370912
2022-08-12T05:03:46.781Z,1016.9295536400001
2022-08-12T05:04:31.749Z,1016.827962276
2022-08-12T05:05:35.918Z,1016.9295536400001
2022-08-12T05:06:31.675Z,1016.827962276
2022-08-12T05:07:31.668Z,1017.031145004
2022-08-12T05:08:31.678Z,1017.031145004
2022-08-12T05:10:00.463Z,1016.9295536400001
2022-08-12T05:10:34.000Z,1016.726370912
2022-08-12T05:11:31.780Z,1017.2343277320001
2022-08-12T05:12:33.180Z,1016.6247795480001
2022-08-12T05:13:31.686Z,1016.827962276
2022-08-12T05:14:37.007Z,1016.9295536400001
2022-08-12T05:15:31.675Z,1017.031145004
2022-08-12T05:16:34.068Z,1016.9295536400001
2022-08-12T05:17:31.662Z,1016.9295536400001
2022-08-12T05:18:31.758Z,1016.827962276
2022-08-12T05:19:31.752Z,1016.827962276
2022-08-12T05:20:31.697Z,1016.827962276
2022-08-12T05:21:31.664Z,1016.827962276
2022-08-12T05:22:31.676Z,1016.827962276
2022-08-12T05:23:31.694Z,1016.726370912
2022-08-12T05:24:31.735Z,1016.827962276
2022-08-12T05:25:31.681Z,1016.6247795480001
2022-08-12T05:26:31.704Z,1016.9295536400001
2022-08-12T05:27:31.686Z,1016.827962276
2022-08-12T05:28:31.698Z,1016.827962276
2022-08-12T05:30:06.535Z,1016.9295536400001
2022-08-12T05:30:31.758Z,1016.827962276
2022-08-12T05:31:42.092Z,1017.031145004
2022-08-12T05:32:31.766Z,1016.827962276
2022-08-12T05:33:31.789Z,1016.726370912
2022-08-12T05:34:31.695Z,1016.827962276
2022-08-12T05:35:31.654Z,1017.031145004
2022-08-12T05:36:31.695Z,1016.827962276
2022-08-12T05:37:31.674Z,1016.726370912
2022-08-12T05:38:31.695Z,1016.9295536400001
2022-08-12T05:39:31.706Z,1017.031145004
2022-08-12T05:40:31.696Z,1016.827962276
2022-08-12T05:41:31.694Z,1016.9295536400001
2022-08-12T05:42:34.348Z,1016.827962276
2022-08-12T05:43:31.695Z,1016.9295536400001
2022-08-12T05:44:31.684Z,1016.827962276
2022-08-12T05:45:31.682Z,1016.827962276
2022-08-12T05:46:31.669Z,1016.9295536400001
2022-08-12T05:47:44.775Z,1016.827962276
2022-08-12T05:48:31.753Z,1016.9295536400001
2022-08-12T05:49:31.687Z,1017.031145004
2022-08-12T05:50:31.693Z,1016.9295536400001
2022-08-12T05:51:38.611Z,1016.9295536400001
2022-08-12T05:52:31.661Z,1017.031145004
2022-08-12T05:53:31.837Z,1017.031145004
2022-08-12T05:54:54.736Z,1016.9295536400001
2022-08-12T05:55:31.778Z,1016.9295536400001
2022-08-12T05:56:31.696Z,1016.827962276
2022-08-12T05:57:31.677Z,1017.132736368
2022-08-12T05:58:31.670Z,1016.827962276
2022-08-12T05:59:31.666Z,1016.9295536400001
2022-08-12T06:00:31.733Z,1016.9295536400001
2022-08-12T06:02:10.685Z,1016.726370912
2022-08-12T06:02:31.789Z,1016.726370912
2022-08-12T06:03:31.774Z,1017.031145004
2022-08-12T06:04:31.771Z,1016.9295536400001
2022-08-12T06:05:31.697Z,1016.9295536400001
2022-08-12T06:06:31.739Z,1016.827962276
2022-08-12T06:07:37.254Z,1016.9295536400001
2022-08-12T06:08:31.715Z,1016.827962276
2022-08-12T06:09:31.670Z,1016.726370912
2022-08-12T06:10:33.061Z,1016.9295536400001
2022-08-12T06:11:31.668Z,1016.9295536400001
2022-08-12T06:12:31.695Z,1016.827962276
2022-08-12T06:13:53.680Z,1016.827962276
2022-08-12T06:14:31.724Z,1016.827962276
2022-08-12T06:15:31.746Z,1016.726370912
2022-08-12T06:16:31.801Z,1016.9295536400001
2022-08-12T06:17:31.790Z,1016.9295536400001
2022-08-12T06:18:31.700Z,1016.9295536400001
2022-08-12T06:20:26.905Z,1016.726370912
2022-08-12T06:20:34.354Z,1016.726370912
2022-08-12T06:21:31.797Z,1016.827962276
2022-08-12T06:22:31.684Z,1017.031145004
2022-08-12T06:23:31.678Z,1016.726370912
2022-08-12T06:24:31.678Z,1016.9295536400001
2022-08-12T06:25:31.667Z,1016.9295536400001
2022-08-12T06:26:31.711Z,1016.9295536400001
2022-08-12T06:27:31.682Z,1016.827962276
2022-08-12T06:28:31.731Z,1016.827962276
2022-08-12T06:30:09.765Z,1016.827962276
2022-08-12T06:30:38.046Z,1016.827962276
2022-08-12T06:31:31.637Z,1016.9295536400001
2022-08-12T06:32:31.700Z,1016.827962276
2022-08-12T06:33:55.653Z,1016.9295536400001
2022-08-12T06:35:23.166Z,1016.9295536400001
2022-08-12T06:35:47.060Z,1016.726370912
2022-08-12T06:36:32.689Z,1016.9295536400001
2022-08-12T06:37:31.713Z,1016.827962276
2022-08-12T06:38:31.691Z,1016.9295536400001
2022-08-12T06:39:31.878Z,1016.726370912
2022-08-12T06:40:31.692Z,1016.827962276
2022-08-12T06:41:31.700Z,1016.726370912
2022-08-12T06:42:33.475Z,1016.6247795480001
2022-08-12T06:44:06.336Z,1016.9295536400001
2022-08-12T06:44:31.743Z,1016.827962276
2022-08-12T06:45:31.681Z,1017.031145004
2022-08-12T06:46:31.684Z,1016.9295536400001
2022-08-12T06:47:31.676Z,1016.827962276
2022-08-12T06:48:31.676Z,1016.726370912
2022-08-12T06:49:31.677Z,1016.827962276
2022-08-12T06:50:31.693Z,1016.726370912
2022-08-12T06:51:31.645Z,1016.9295536400001
2022-08-12T06:52:31.800Z,1016.9295536400001
2022-08-12T06:53:31.703Z,1017.031145004
2022-08-12T06:54:32.368Z,1016.9295536400001
2022-08-12T06:55:31.860Z,1017.031145004
2022-08-12T06:56:59.724Z,1017.031145004
2022-08-12T06:58:03.656Z,1017.031145004
2022-08-12T06:58:31.727Z,1016.827962276
2022-08-12T06:59:31.724Z,1017.132736368
2022-08-12T07:00:32.409Z,1016.827962276
2022-08-12T07:01:31.751Z,1017.132736368
2022-08-12T07:02:36.322Z,1016.827962276
2022-08-12T07:03:31.663Z,1016.9295536400001
2022-08-12T07:04:37.755Z,1016.827962276
2022-08-12T07:05:31.713Z,1016.827962276
2022-08-12T07:06:31.672Z,1017.031145004
2022-08-12T07:07:31.672Z,1016.827962276
2022-08-12T07:08:31.693Z,1017.132736368
2022-08-12T07:10:04.539Z,1017.132736368
2022-08-12T07:10:31.749Z,1017.132736368
2022-08-12T07:11:31.667Z,1016.9295536400001
2022-08-12T07:12:31.821Z,1016.827962276
2022-08-12T07:13:31.810Z,1017.132736368
2022-08-12T07:14:31.773Z,1017.031145004
2022-08-12T07:15:31.666Z,1017.132736368
2022-08-12T07:16:31.665Z,1017.031145004
2022-08-12T07:17:31.669Z,1016.9295536400001
2022-08-12T07:18:31.675Z,1016.9295536400001
2022-08-12T07:19:40.504Z,1017.031145004
2022-08-12T07:20:51.696Z,1017.2343277320001
2022-08-12T07:21:59.477Z,1017.132736368
2022-08-12T07:22:31.799Z,1017.132736368
2022-08-12T07:23:31.640Z,1017.2343277320001
2022-08-12T07:24:31.965Z,1017.2343277320001
2022-08-12T07:25:37.870Z,1017.031145004
2022-08-12T07:26:31.939Z,1016.9295536400001
2022-08-12T07:27:31.680Z,1016.9295536400001
2022-08-12T07:28:31.718Z,1016.9295536400001
2022-08-12T07:29:57.791Z,1017.2343277320001
2022-08-12T07:30:31.740Z,1016.9295536400001
2022-08-12T07:31:31.672Z,1017.031145004
2022-08-12T07:32:31.743Z,1017.132736368
2022-08-12T07:33:31.695Z,1017.2343277320001
2022-08-12T07:34:31.712Z,1017.2343277320001
2022-08-12T07:35:31.660Z,1017.132736368
2022-08-12T07:36:31.677Z,1017.132736368
2022-08-12T07:37:31.705Z,1017.2343277320001
2022-08-12T07:38:31.680Z,1017.2343277320001
2022-08-12T07:39:31.722Z,1017.132736368
2022-08-12T07:40:31.672Z,1017.2343277320001
2022-08-12T07:41:31.683Z,1017.132736368
2022-08-12T07:42:31.730Z,1017.132736368
2022-08-12T07:43:31.665Z,1017.2343277320001
2022-08-12T07:44:31.689Z,1017.335919096
2022-08-12T07:45:31.670Z,1017.132736368
2022-08-12T07:46:31.670Z,1017.335919096
2022-08-12T07:47:31.707Z,1017.031145004
2022-08-12T07:48:31.701Z,1017.335919096
2022-08-12T07:49:31.697Z,1017.031145004
2022-08-12T07:50:31.788Z,1017.43751046
2022-08-12T07:51:31.690Z,1017.335919096
2022-08-12T07:52:31.729Z,1017.2343277320001
2022-08-12T07:53:31.712Z,1017.2343277320001
2022-08-12T07:54:31.703Z,1017.132736368
2022-08-12T07:55:31.707Z,1017.2343277320001
2022-08-12T07:56:31.765Z,1017.031145004
2022-08-12T07:57:31.633Z,1017.031145004
2022-08-12T07:58:31.659Z,1017.031145004
2022-08-12T07:59:32.051Z,1017.132736368
2022-08-12T08:00:31.739Z,1017.132736368
2022-08-12T08:01:31.764Z,1017.132736368
2022-08-12T08:02:31.750Z,1017.2343277320001
2022-08-12T08:03:31.672Z,1017.2343277320001
2022-08-12T08:04:31.670Z,1017.335919096
2022-08-12T08:05:31.712Z,1017.132736368
2022-08-12T08:06:31.679Z,1017.132736368
2022-08-12T08:07:31.727Z,1017.2343277320001
2022-08-12T08:08:31.678Z,1017.132736368
2022-08-12T08:09:31.681Z,1017.43751046
2022-08-12T08:10:31.712Z,1017.2343277320001
2022-08-12T08:11:31.650Z,1016.9295536400001
2022-08-12T08:12:31.709Z,1017.132736368
2022-08-12T08:13:31.638Z,1017.2343277320001
2022-08-12T08:14:31.715Z,1017.2343277320001
2022-08-12T08:16:00.622Z,1017.2343277320001
2022-08-12T08:16:31.709Z,1017.335919096
2022-08-12T08:17:31.680Z,1017.335919096
2022-08-12T08:18:31.829Z,1017.335919096
2022-08-12T08:19:31.661Z,1017.335919096
2022-08-12T08:20:31.693Z,1017.2343277320001
2022-08-12T08:21:31.669Z,1017.2343277320001
2022-08-12T08:22:41.341Z,1017.43751046
2022-08-12T08:23:35.245Z,1017.132736368
2022-08-12T08:24:31.798Z,1017.335919096
2022-08-12T08:25:36.828Z,1017.2343277320001
2022-08-12T08:26:31.717Z,1017.2343277320001
2022-08-12T08:27:31.665Z,1017.335919096
2022-08-12T08:28:31.686Z,1017.2343277320001
2022-08-12T08:29:31.849Z,1017.335919096
2022-08-12T08:30:31.749Z,1017.335919096
2022-08-12T08:31:31.644Z,1017.132736368
2022-08-12T08:32:31.813Z,1017.43751046
2022-08-12T08:34:01.407Z,1017.335919096
2022-08-12T08:34:52.886Z,1017.43751046
2022-08-12T08:35:45.452Z,1017.43751046
2022-08-12T08:36:31.708Z,1017.2343277320001
2022-08-12T08:37:33.354Z,1017.2343277320001
2022-08-12T08:38:34.878Z,1017.539101824
2022-08-12T08:39:31.696Z,1017.539101824
2022-08-12T08:40:31.688Z,1017.43751046
2022-08-12T08:42:16.031Z,1017.539101824
2022-08-12T08:42:31.743Z,1017.539101824
2022-08-12T08:43:44.080Z,1017.6068294
2022-08-12T08:44:31.641Z,1017.335919096
2022-08-12T08:45:31.670Z,1017.335919096
2022-08-12T08:46:31.674Z,1017.43751046
2022-08-12T08:47:31.641Z,1017.2343277320001
2022-08-12T08:48:31.645Z,1017.6068294
2022-08-12T08:49:31.796Z,1017.43751046
2022-08-12T08:50:32.013Z,1017.2343277320001
2022-08-12T08:51:31.649Z,1017.43751046
2022-08-12T08:52:35.308Z,1017.2343277320001
2022-08-12T08:53:32.410Z,1017.2343277320001
2022-08-12T08:54:31.704Z,1017.43751046
2022-08-12T08:56:01.348Z,1017.335919096
2022-08-12T08:56:31.725Z,1017.43751046
2022-08-12T08:57:42.812Z,1017.2343277320001
2022-08-12T08:58:31.668Z,1017.43751046
2022-08-12T08:59:31.663Z,1017.335919096
2022-08-12T09:00:31.797Z,1017.539101824
2022-08-12T09:01:31.674Z,1017.539101824
2022-08-12T09:02:31.774Z,1017.43751046
2022-08-12T09:05:13.341Z,1017.539101824
2022-08-12T09:06:01.686Z,1017.43751046
2022-08-12T09:06:37.786Z,1017.43751046
2022-08-12T09:07:51.002Z,1017.43751046
2022-08-12T09:08:31.729Z,1017.335919096
2022-08-12T09:10:01.536Z,1017.43751046
2022-08-12T09:10:32.710Z,1017.43751046
2022-08-12T09:12:06.517Z,1017.43751046
2022-08-12T09:12:31.736Z,1017.43751046
2022-08-12T09:14:11.990Z,1017.43751046
2022-08-12T09:14:31.722Z,1017.43751046
2022-08-12T09:15:34.986Z,1017.335919096
2022-08-12T09:16:31.703Z,1017.43751046
2022-08-12T09:17:42.841Z,1017.335919096
2022-08-12T09:18:33.535Z,1017.335919096
2022-08-12T09:19:31.653Z,1017.132736368
2022-08-12T09:20:31.710Z,1017.335919096
2022-08-12T09:21:54.792Z,1017.43751046
2022-08-12T09:22:31.716Z,1017.43751046
2022-08-12T09:23:59.028Z,1017.539101824
2022-08-12T09:24:31.897Z,1017.335919096
2022-08-12T09:25:33.385Z,1017.335919096
2022-08-12T09:26:31.679Z,1017.335919096
2022-08-12T09:28:03.427Z,1017.43751046
2022-08-12T09:28:32.092Z,1017.539101824
2022-08-12T09:30:10.970Z,1017.43751046
2022-08-12T09:30:41.016Z,1017.43751046
2022-08-12T09:32:04.336Z,1017.335919096
2022-08-12T09:33:04.205Z,1017.43751046
2022-08-12T09:34:26.772Z,1017.335919096
2022-08-12T09:34:34.172Z,1017.43751046
2022-08-12T09:35:31.625Z,1017.335919096
2022-08-12T09:36:57.929Z,1017.43751046
2022-08-12T09:37:58.433Z,1017.43751046
2022-08-12T09:38:32.100Z,1017.335919096
2022-08-12T09:40:05.031Z,1017.43751046
2022-08-12T09:40:57.442Z,1017.2343277320001
2022-08-12T09:42:10.054Z,1017.43751046
2022-08-12T09:42:40.830Z,1017.335919096
2022-08-12T09:43:31.847Z,1017.031145004